Time;durP1;ratioP1;P1;durP2;ratioP2;P2;SDS_P1;SDS_P2;PMS_P1;PMS_P2;Temp;Humidity;BMP_temperature;BMP_pressure;BME280_temperature;BME280_humidity;BME280_pressure;Samples;Min_cycle;Max_cycle;Signal;HPM_P1;HPM_P2
2022/04/27 00:02:24;;;;;;;116.78;105.97;;;9.70;54.70;;;;;;5016144;28;20046;-75
2022/04/27 00:04:51;;;;;;;116.60;105.80;;;9.60;54.70;;;;;;5016071;28;20058;-75
2022/04/27 00:07:18;;;;;;;117.40;106.05;;;9.50;54.80;;;;;;5016022;28;20053;-75
2022/04/27 00:09:45;;;;;;;116.95;106.03;;;9.50;55.30;;;;;;4999662;28;20586;-75
2022/04/27 00:12:12;;;;;;;117.45;106.60;;;9.40;54.80;;;;;;5015853;28;20619;-75
2022/04/27 00:14:39;;;;;;;117.85;106.60;;;9.40;55.10;;;;;;5015785;28;20484;-75
2022/04/27 00:17:08;;;;;;;119.80;108.90;;;9.30;55.20;;;;;;5015300;28;20509;-75
2022/04/27 00:19:35;;;;;;;117.82;106.72;;;9.30;55.60;;;;;;5015742;28;20138;-75
2022/04/27 00:22:02;;;;;;;119.18;108.28;;;9.20;55.70;;;;;;5033578;28;20479;-75
2022/04/27 00:24:28;;;;;;;117.70;106.60;;;9.20;55.80;;;;;;5015315;28;20042;-75
2022/04/27 00:26:55;;;;;;;117.80;106.90;;;9.10;55.90;;;;;;5033352;28;20145;-75
2022/04/27 00:29:22;;;;;;;116.60;105.70;;;9.10;56.00;;;;;;5015043;28;20428;-75
2022/04/27 00:31:49;;;;;;;118.90;107.50;;;9.10;56.00;;;;;;5015526;28;20133;-76
2022/04/27 00:34:17;;;;;;;120.13;108.45;;;9.00;56.10;;;;;;5033197;28;20070;-75
2022/04/27 00:36:44;;;;;;;118.38;107.20;;;8.90;56.50;;;;;;5015805;28;20061;-75
2022/04/27 00:39:11;;;;;;;118.18;107.10;;;8.70;56.60;;;;;;5015263;28;20186;-75
2022/04/27 00:41:38;;;;;;;116.20;105.35;;;8.70;56.70;;;;;;5015283;28;20108;-75
2022/04/27 00:44:06;;;;;;;118.68;107.43;;;8.60;56.50;;;;;;5031644;28;20595;-75
2022/04/27 00:46:33;;;;;;;117.68;106.65;;;8.60;56.60;;;;;;5015764;28;20053;-75
2022/04/27 00:48:59;;;;;;;118.15;107.07;;;8.60;56.80;;;;;;5015198;28;20054;-75
2022/04/27 00:51:29;;;;;;;117.97;106.90;;;8.60;56.70;;;;;;5031969;28;20546;-75
2022/04/27 00:53:58;;;;;;;118.38;107.15;;;8.60;56.80;;;;;;5030767;28;20058;-75
2022/04/27 00:56:26;;;;;;;117.55;106.40;;;8.60;56.90;;;;;;5015262;28;20138;-75
2022/04/27 00:58:53;;;;;;;115.72;104.65;;;8.50;57.00;;;;;;5014928;28;20049;-75
2022/04/27 01:01:20;;;;;;;116.63;105.32;;;8.50;57.30;;;;;;5015251;28;20081;-75
2022/04/27 01:03:47;;;;;;;114.75;103.95;;;8.50;56.90;;;;;;5015188;28;20052;-75
2022/04/27 01:06:15;;;;;;;114.85;104.13;;;8.50;56.80;;;;;;5014950;28;20558;-75
2022/04/27 01:08:44;;;;;;;115.20;104.28;;;8.40;56.80;;;;;;5014985;28;20054;-75
2022/04/27 01:11:11;;;;;;;115.07;103.97;;;8.30;56.90;;;;;;5015062;28;20209;-75
2022/04/27 01:13:45;;;;;;;115.85;104.80;;;8.30;57.00;;;;;;5031605;28;20140;-76
2022/04/27 01:16:12;;;;;;;115.57;104.68;;;8.30;57.30;;;;;;5015168;28;20508;-75
2022/04/27 01:18:39;;;;;;;116.68;105.60;;;8.20;57.70;;;;;;5014747;28;20519;-76
2022/04/27 01:21:08;;;;;;;116.55;105.57;;;8.20;57.90;;;;;;5031531;28;20139;-75
2022/04/27 01:23:45;;;;;;;115.55;104.57;;;8.20;58.10;;;;;;5015038;28;20058;-75
2022/04/27 01:26:12;;;;;;;115.88;105.00;;;8.10;57.90;;;;;;5014906;28;20084;-75
2022/04/27 01:28:39;;;;;;;116.85;105.68;;;8.10;58.10;;;;;;5015005;28;20053;-75
2022/04/27 01:31:08;;;;;;;116.13;104.78;;;8.10;58.40;;;;;;5031335;28;20050;-75
2022/04/27 01:33:36;;;;;;;116.32;105.13;;;8.10;58.60;;;;;;5014902;28;21011;-75
2022/04/27 01:36:03;;;;;;;116.53;105.43;;;8.10;58.70;;;;;;5014919;28;20173;-76
2022/04/27 01:38:36;;;;;;;116.10;105.15;;;8.10;58.80;;;;;;5014680;28;20074;-75
2022/04/27 01:41:03;;;;;;;115.07;104.15;;;8.10;59.00;;;;;;5014970;28;20058;-75
2022/04/27 01:43:31;;;;;;;114.70;103.57;;;8.10;58.90;;;;;;5014142;28;20082;-76
2022/04/27 01:45:58;;;;;;;115.28;104.50;;;8.00;59.10;;;;;;5032402;28;20054;-75
2022/04/27 01:48:26;;;;;;;116.38;105.50;;;8.00;59.40;;;;;;5014656;28;20153;-75
2022/04/27 01:50:53;;;;;;;116.68;105.50;;;8.00;59.50;;;;;;5014359;28;20057;-75
2022/04/27 01:56:07;;;;;;;114.17;103.33;;;7.90;59.80;;;;;;5031178;28;20042;-75
2022/04/27 01:58:41;;;;;;;113.85;102.85;;;7.80;59.90;;;;;;5014422;28;20305;-75
2022/04/27 02:01:11;;;;;;;115.30;104.05;;;7.70;59.90;;;;;;5014396;28;20736;-75
2022/04/27 02:03:39;;;;;;;116.43;105.32;;;7.70;60.20;;;;;;4998081;28;20046;-75
2022/04/27 02:06:11;;;;;;;115.20;104.05;;;7.70;60.50;;;;;;5000453;28;20327;-76
2022/04/27 02:08:38;;;;;;;116.68;105.53;;;7.60;60.50;;;;;;5017374;28;20056;-75
2022/04/27 02:11:07;;;;;;;116.60;105.45;;;7.60;60.80;;;;;;5017327;28;20084;-75
2022/04/27 02:13:38;;;;;;;116.13;104.93;;;7.60;61.10;;;;;;5017535;28;20052;-75
2022/04/27 02:16:06;;;;;;;115.65;104.40;;;7.60;62.00;;;;;;5017394;28;20053;-75
2022/04/27 02:18:37;;;;;;;114.93;104.03;;;7.60;62.10;;;;;;5017507;28;20100;-75
2022/04/27 02:21:06;;;;;;;114.57;103.63;;;7.60;62.80;;;;;;5034292;28;20058;-75
2022/04/27 02:23:33;;;;;;;115.03;103.90;;;7.60;62.60;;;;;;5017618;28;20053;-75
2022/04/27 02:26:02;;;;;;;114.63;103.55;;;7.60;62.70;;;;;;5017647;28;20046;-75
2022/04/27 02:28:30;;;;;;;116.80;105.28;;;7.60;62.80;;;;;;5035680;28;20061;-75
2022/04/27 02:30:58;;;;;;;115.63;104.53;;;7.60;63.10;;;;;;5017669;28;20089;-75
2022/04/27 02:33:25;;;;;;;117.85;106.47;;;7.60;63.40;;;;;;5017361;28;20060;-75
2022/04/27 02:35:52;;;;;;;115.80;104.55;;;7.50;63.70;;;;;;5033678;28;20108;-75
2022/04/27 02:38:19;;;;;;;116.22;104.88;;;7.60;64.10;;;;;;5000683;28;20060;-75
2022/04/27 02:40:48;;;;;;;116.60;105.40;;;7.60;64.40;;;;;;5033991;28;20053;-75
2022/04/27 02:43:15;;;;;;;116.57;105.38;;;7.60;64.70;;;;;;5016896;28;20053;-75
2022/04/27 02:45:45;;;;;;;116.38;105.07;;;7.50;64.80;;;;;;5017400;28;20045;-75
2022/04/27 02:48:12;;;;;;;115.85;104.45;;;7.60;65.30;;;;;;5016790;28;20056;-75
2022/04/27 02:53:23;;;;;;;117.63;106.07;;;7.60;65.70;;;;;;5034905;28;20103;-75
2022/04/27 02:55:52;;;;;;;116.10;104.80;;;7.60;66.00;;;;;;5017107;28;20060;-75
2022/04/27 02:58:19;;;;;;;116.97;105.75;;;7.60;66.40;;;;;;5016725;28;20534;-75
2022/04/27 03:00:48;;;;;;;116.68;105.47;;;7.60;66.80;;;;;;5016634;28;20077;-75
2022/04/27 03:03:17;;;;;;;116.72;105.50;;;7.60;67.10;;;;;;5017062;28;20048;-76
2022/04/27 03:05:45;;;;;;;117.25;105.75;;;7.60;67.40;;;;;;5016983;28;20133;-75
2022/04/27 03:08:14;;;;;;;116.45;105.10;;;7.60;67.80;;;;;;5016589;28;20050;-75
2022/04/27 03:10:51;;;;;;;115.45;104.05;;;7.60;68.20;;;;;;5017055;28;20053;-75
2022/04/27 03:13:21;;;;;;;116.97;105.65;;;7.60;68.40;;;;;;5017003;28;20166;-75
2022/04/27 03:15:52;;;;;;;116.70;105.47;;;7.60;68.90;;;;;;5016561;28;20082;-75
2022/04/27 03:18:20;;;;;;;116.82;105.25;;;7.70;69.60;;;;;;4999318;28;20104;-75
2022/04/27 03:20:49;;;;;;;115.93;104.78;;;7.70;69.80;;;;;;5016842;28;20050;-75
2022/04/27 03:23:16;;;;;;;118.57;107.25;;;7.70;70.20;;;;;;5000339;28;20106;-75
2022/04/27 03:25:46;;;;;;;117.63;106.43;;;7.60;70.20;;;;;;5016420;28;20050;-75
2022/04/27 03:28:14;;;;;;;118.30;106.57;;;7.60;70.80;;;;;;4999761;28;20050;-75
2022/04/27 03:30:41;;;;;;;118.20;106.75;;;7.60;70.90;;;;;;5016509;28;20054;-75
2022/04/27 03:33:23;;;;;;;117.57;106.15;;;7.70;71.30;;;;;;4999887;28;20336;-75
2022/04/27 03:35:51;;;;;;;116.38;105.00;;;7.60;71.50;;;;;;5016526;28;20061;-75
2022/04/27 03:38:19;;;;;;;119.18;107.03;;;7.60;71.80;;;;;;5016232;28;20092;-75
2022/04/27 03:40:47;;;;;;;117.40;105.90;;;7.70;72.30;;;;;;5016358;28;20153;-75
2022/04/27 03:43:16;;;;;;;117.78;106.28;;;7.70;72.50;;;;;;5015940;28;20050;-75
2022/04/27 03:45:45;;;;;;;118.53;106.82;;;7.70;72.90;;;;;;5016164;28;20136;-75
2022/04/27 03:48:12;;;;;;;117.97;106.30;;;7.70;73.10;;;;;;5015771;28;20073;-75
2022/04/27 03:50:40;;;;;;;117.45;105.70;;;7.70;73.50;;;;;;5016154;28;20056;-75
2022/04/27 03:53:08;;;;;;;118.25;106.68;;;7.70;74.00;;;;;;5015642;28;20074;-75
2022/04/27 03:55:35;;;;;;;117.13;105.78;;;7.70;74.30;;;;;;4999573;28;20050;-75
2022/04/27 03:58:03;;;;;;;118.28;106.57;;;7.70;74.70;;;;;;5032175;28;20054;-75
2022/04/27 04:00:31;;;;;;;118.13;106.40;;;7.70;74.80;;;;;;5015998;28;20472;-75
2022/04/27 04:03:07;;;;;;;117.25;105.65;;;7.70;75.00;;;;;;5032253;28;20112;-75
2022/04/27 04:05:37;;;;;;;117.15;105.43;;;7.70;75.00;;;;;;5015939;28;20057;-75
2022/04/27 04:08:06;;;;;;;115.97;104.55;;;7.70;75.10;;;;;;4999090;28;20056;-75
2022/04/27 04:10:33;;;;;;;116.60;105.15;;;7.70;75.50;;;;;;5015831;28;20064;-75
2022/04/27 04:13:00;;;;;;;116.45;104.85;;;7.70;75.80;;;;;;5033419;28;20137;-75
2022/04/27 04:15:28;;;;;;;171.90;109.35;;;7.70;76.00;;;;;;5032383;28;20500;-75
2022/04/27 04:18:26;;;;;;;152.48;108.35;;;7.70;76.20;;;;;;5015125;28;20069;-75
2022/04/27 04:21:04;;;;;;;117.07;105.07;;;7.70;76.30;;;;;;5032028;28;20081;-75
2022/04/27 04:23:37;;;;;;;117.75;105.60;;;7.70;76.80;;;;;;5015639;28;20050;-75
2022/04/27 04:28:56;;;;;;;115.95;104.68;;;7.70;76.90;;;;;;5031314;28;20077;-75
2022/04/27 04:31:24;;;;;;;116.22;104.72;;;7.70;77.00;;;;;;5015131;28;20046;-75
2022/04/27 04:33:50;;;;;;;116.78;105.38;;;7.70;77.30;;;;;;5031753;28;20149;-75
2022/04/27 04:36:19;;;;;;;116.78;105.40;;;7.70;77.90;;;;;;5015274;28;20136;-75
2022/04/27 04:38:47;;;;;;;114.82;103.80;;;7.70;77.90;;;;;;5014868;28;20450;-75
2022/04/27 04:41:22;;;;;;;115.85;104.43;;;7.80;78.20;;;;;;5015330;28;20061;-75
2022/04/27 04:43:58;;;;;;;116.10;104.80;;;7.80;78.40;;;;;;5015239;28;20049;-75
2022/04/27 04:46:26;;;;;;;116.22;104.53;;;7.70;78.40;;;;;;4998890;28;20050;-75
2022/04/27 04:49:13;;;;;;;116.18;104.53;;;7.80;78.40;;;;;;5031575;28;20054;-75
2022/04/27 04:51:58;;;;;;;115.07;103.93;;;7.80;78.80;;;;;;5032354;28;20079;-75
2022/04/27 04:54:53;;;;;;;116.75;105.03;;;7.70;79.20;;;;;;5011712;28;20050;-75
2022/04/27 04:57:41;;;;;;;118.22;106.72;;;7.70;78.90;;;;;;4998483;28;20046;-75
2022/04/27 05:00:27;;;;;;;117.40;105.93;;;7.70;78.80;;;;;;5017441;28;20505;-75
2022/04/27 05:03:20;;;;;;;116.18;104.55;;;7.80;78.80;;;;;;5049228;28;20054;-75
2022/04/27 05:05:47;;;;;;;115.88;104.70;;;7.80;78.10;;;;;;5051508;28;20042;-75
2022/04/27 05:08:38;;;;;;;115.05;103.75;;;7.80;78.60;;;;;;5034755;28;20361;-75
2022/04/27 05:11:23;;;;;;;113.50;102.38;;;7.90;79.20;;;;;;5034826;28;20085;-75
2022/04/27 05:14:09;;;;;;;114.88;103.40;;;7.90;78.90;;;;;;5051427;28;20100;-75
2022/04/27 05:16:43;;;;;;;114.03;102.90;;;8.00;78.80;;;;;;5034647;28;20494;-75
2022/04/27 05:19:23;;;;;;;115.35;104.28;;;8.00;78.60;;;;;;5034788;28;20042;-75
2022/04/27 05:21:53;;;;;;;114.72;103.63;;;8.00;79.00;;;;;;5052686;28;20049;-76
2022/04/27 05:24:30;;;;;;;114.75;103.72;;;8.00;79.10;;;;;;5034769;28;20045;-75
2022/04/27 05:27:13;;;;;;;116.13;104.65;;;8.00;79.40;;;;;;5034701;28;20067;-75
2022/04/27 05:33:13;;;;;;;116.43;104.78;;;8.00;81.30;;;;;;5042646;28;20609;-75
2022/04/27 05:35:52;;;;;;;116.63;105.40;;;8.10;81.10;;;;;;5034803;28;20215;-75
2022/04/27 05:38:22;;;;;;;116.20;105.10;;;8.10;81.10;;;;;;5050935;28;20539;-75
2022/04/27 05:40:49;;;;;;;115.70;104.25;;;8.20;81.30;;;;;;5053045;28;20056;-75
2022/04/27 05:43:37;;;;;;;114.43;103.43;;;8.20;81.40;;;;;;5054674;28;20053;-75
2022/04/27 05:46:18;;;;;;;116.45;105.15;;;8.20;81.40;;;;;;5037837;28;20472;-75
2022/04/27 05:49:15;;;;;;;115.22;104.07;;;8.30;81.40;;;;;;5049777;28;20181;-75
2022/04/27 05:52:07;;;;;;;115.22;104.03;;;8.30;81.50;;;;;;5036999;28;20131;-75
2022/04/27 05:54:58;;;;;;;113.85;102.85;;;8.30;81.30;;;;;;5031103;28;20164;-75
2022/04/27 05:57:50;;;;;;;117.93;106.25;;;8.40;81.10;;;;;;5020664;28;20205;-75
2022/04/27 06:00:32;;;;;;;116.13;104.75;;;8.40;80.50;;;;;;5036404;28;20076;-76
2022/04/27 06:03:26;;;;;;;116.10;104.88;;;8.40;80.20;;;;;;5052347;28;20100;-76
2022/04/27 06:05:57;;;;;;;115.80;104.65;;;8.50;80.10;;;;;;5034759;28;20058;-76
2022/04/27 06:08:24;;;;;;;116.57;105.30;;;8.50;80.30;;;;;;5052386;28;20510;-76
2022/04/27 06:10:54;;;;;;;115.85;104.60;;;8.50;80.40;;;;;;5035958;28;20053;-75
2022/04/27 06:13:24;;;;;;;115.45;104.18;;;8.60;80.30;;;;;;5052814;28;20072;-75
2022/04/27 06:16:03;;;;;;;114.22;103.28;;;8.60;80.20;;;;;;5052248;28;20053;-76
2022/04/27 06:18:51;;;;;;;113.47;102.35;;;8.60;80.10;;;;;;5050939;28;20500;-75
2022/04/27 06:21:18;;;;;;;114.97;103.72;;;8.70;79.60;;;;;;5030643;28;20255;-75
2022/04/27 06:23:45;;;;;;;114.57;103.63;;;8.70;79.60;;;;;;5019450;28;20499;-76
2022/04/27 06:26:14;;;;;;;115.57;104.70;;;8.70;79.70;;;;;;5035668;28;20046;-75
2022/04/27 06:28:44;;;;;;;115.13;103.97;;;8.80;79.80;;;;;;5051610;28;20169;-76
2022/04/27 06:31:13;;;;;;;117.68;106.57;;;8.80;79.40;;;;;;5033991;28;20140;-76
2022/04/27 06:33:41;;;;;;;113.90;103.03;;;8.80;79.30;;;;;;5032913;28;20140;-76
2022/04/27 06:36:08;;;;;;;115.47;104.15;;;8.80;79.10;;;;;;5017867;28;20096;-76
2022/04/27 06:38:35;;;;;;;115.97;104.75;;;8.80;79.10;;;;;;5034299;28;20042;-75
2022/04/27 06:41:09;;;;;;;114.18;103.07;;;8.90;79.20;;;;;;5050226;28;20478;-77
2022/04/27 06:43:55;;;;;;;114.53;103.50;;;8.90;78.80;;;;;;5033287;28;20176;-77
2022/04/27 06:46:56;;;;;;;113.13;102.15;;;9.00;78.00;;;;;;5035844;28;20534;-77
2022/04/27 06:49:42;;;;;;;112.95;102.18;;;9.00;77.30;;;;;;5052346;28;20068;-75
2022/04/27 06:52:27;;;;;;;112.13;101.53;;;9.10;76.60;;;;;;5052304;28;20057;-75
2022/04/27 06:55:30;;;;;;;114.95;103.88;;;9.10;76.40;;;;;;5052039;28;20435;-76
2022/04/27 06:58:15;;;;;;;113.65;102.47;;;9.10;76.00;;;;;;5053413;28;20064;-75
2022/04/27 07:00:47;;;;;;;113.07;102.05;;;9.10;75.90;;;;;;5036331;28;20050;-75
2022/04/27 07:03:15;;;;;;;115.28;104.45;;;9.20;75.80;;;;;;5052678;28;20081;-76
2022/04/27 07:05:42;;;;;;;111.70;100.93;;;9.20;75.60;;;;;;5050254;28;20366;-75
2022/04/27 07:08:10;;;;;;;113.13;102.50;;;9.20;75.30;;;;;;5034955;28;20050;-75
2022/04/27 07:10:37;;;;;;;110.40;99.80;;;9.20;74.90;;;;;;5052232;28;20523;-75
2022/04/27 07:13:05;;;;;;;116.13;105.32;;;9.20;74.10;;;;;;5035979;28;20526;-78
2022/04/27 07:15:32;;;;;;;111.00;100.43;;;9.30;74.30;;;;;;5051970;28;20053;-75
2022/04/27 07:17:59;;;;;;;110.65;100.10;;;9.30;74.10;;;;;;5052165;28;20059;-77
2022/04/27 07:20:27;;;;;;;114.90;104.25;;;9.30;73.50;;;;;;5052804;28;20054;-75
2022/04/27 07:22:54;;;;;;;111.55;101.05;;;9.30;73.20;;;;;;5035329;28;20050;-76
2022/04/27 07:25:21;;;;;;;116.50;105.22;;;9.40;72.90;;;;;;5033861;28;20053;-76
2022/04/27 07:27:48;;;;;;;111.25;100.85;;;9.40;73.40;;;;;;5049982;28;20435;-76
2022/04/27 07:30:15;;;;;;;113.60;103.07;;;9.40;73.40;;;;;;5050169;28;20053;-76
2022/04/27 07:32:44;;;;;;;110.88;100.32;;;9.40;73.40;;;;;;5053003;28;20060;-76
2022/04/27 07:35:11;;;;;;;111.72;101.07;;;9.50;73.50;;;;;;5035198;28;20057;-76
2022/04/27 07:37:39;;;;;;;111.05;100.55;;;9.50;73.10;;;;;;5047930;28;20124;-76
2022/04/27 07:40:09;;;;;;;110.75;100.13;;;9.60;72.10;;;;;;5051691;28;20049;-76
2022/04/27 07:42:37;;;;;;;113.05;102.45;;;9.60;71.30;;;;;;5034088;28;20056;-76
2022/04/27 07:45:07;;;;;;;110.00;99.70;;;9.70;70.60;;;;;;5035175;28;20042;-76
2022/04/27 07:47:42;;;;;;;108.90;98.55;;;9.60;70.00;;;;;;5035274;28;20060;-76
2022/04/27 07:50:10;;;;;;;109.13;98.80;;;9.60;69.20;;;;;;5050279;28;20419;-76
2022/04/27 07:52:39;;;;;;;108.18;98.18;;;9.70;68.80;;;;;;5034991;28;20805;-76
2022/04/27 07:55:08;;;;;;;108.40;98.32;;;9.70;68.10;;;;;;5051157;28;20151;-77
2022/04/27 07:57:35;;;;;;;108.25;98.15;;;9.70;68.20;;;;;;5034945;28;20048;-76
2022/04/27 08:00:06;;;;;;;108.65;98.18;;;9.70;67.90;;;;;;5035549;28;20048;-76
2022/04/27 08:02:38;;;;;;;107.95;97.63;;;9.80;67.80;;;;;;5050550;28;20052;-76
2022/04/27 08:05:06;;;;;;;111.97;101.50;;;9.80;67.90;;;;;;5033461;28;20050;-75
2022/04/27 08:07:39;;;;;;;109.68;99.47;;;9.80;67.50;;;;;;5051665;28;20071;-76
2022/04/27 08:10:11;;;;;;;109.55;99.20;;;9.90;66.70;;;;;;5051496;28;20495;-76
2022/04/27 08:12:40;;;;;;;110.07;99.82;;;9.90;66.10;;;;;;5050764;28;20807;-76
2022/04/27 08:15:08;;;;;;;107.80;97.45;;;9.90;65.70;;;;;;5050399;28;20053;-76
2022/04/27 08:17:35;;;;;;;109.10;98.93;;;10.00;65.80;;;;;;5034199;28;20046;-72
2022/04/27 08:22:45;;;;;;;108.40;97.90;;;10.10;66.10;;;;;;4996418;28;20526;-76
2022/04/27 08:25:12;;;;;;;109.28;98.97;;;10.10;64.90;;;;;;5045267;28;20058;-75
2022/04/27 08:27:39;;;;;;;109.82;99.53;;;10.10;64.50;;;;;;5035435;28;20472;-75
2022/04/27 08:30:07;;;;;;;110.10;99.80;;;10.10;64.20;;;;;;5052322;28;20050;-78
2022/04/27 08:32:34;;;;;;;108.68;98.30;;;10.20;63.90;;;;;;5027112;28;20056;-76
2022/04/27 08:35:01;;;;;;;110.57;100.22;;;10.20;63.80;;;;;;5034836;28;20129;-76
2022/04/27 08:37:28;;;;;;;110.85;100.32;;;10.30;64.10;;;;;;5052354;28;20504;-75
2022/04/27 08:39:56;;;;;;;108.97;98.88;;;10.30;63.30;;;;;;5035261;28;20064;-76
2022/04/27 08:42:23;;;;;;;110.25;99.85;;;10.30;63.10;;;;;;5034038;28;20049;-76
2022/04/27 08:44:50;;;;;;;110.93;100.47;;;10.40;63.20;;;;;;5051140;28;20104;-76
2022/04/27 08:47:17;;;;;;;109.60;99.05;;;10.40;63.30;;;;;;5034674;28;20053;-78
2022/04/27 08:49:44;;;;;;;108.50;98.30;;;10.40;63.30;;;;;;5034037;28;20132;-74
2022/04/27 08:52:13;;;;;;;109.50;99.35;;;10.50;63.50;;;;;;5029175;28;20042;-75
2022/04/27 08:54:41;;;;;;;110.18;99.97;;;10.50;63.90;;;;;;5050129;28;20516;-75
2022/04/27 08:57:09;;;;;;;112.65;102.18;;;10.50;63.90;;;;;;5039095;28;20064;-75
2022/04/27 08:59:37;;;;;;;109.82;99.82;;;10.60;63.90;;;;;;5032882;28;20049;-75
2022/04/27 09:02:26;;;;;;;110.45;100.07;;;10.70;63.90;;;;;;5037941;28;20516;-75
2022/04/27 09:05:10;;;;;;;109.60;99.38;;;10.70;63.00;;;;;;5033123;28;20610;-75
2022/04/27 09:07:39;;;;;;;109.65;99.20;;;10.70;63.20;;;;;;5046631;28;20053;-75
2022/04/27 09:10:08;;;;;;;108.53;98.53;;;10.80;63.00;;;;;;5052260;28;20539;-75
2022/04/27 09:12:38;;;;;;;110.65;99.80;;;10.90;63.00;;;;;;5049593;28;20076;-75
2022/04/27 09:15:08;;;;;;;110.22;99.88;;;10.90;63.10;;;;;;5051382;28;20080;-75
2022/04/27 09:23:06;;;;;;;111.45;101.25;;;11.10;62.60;;;;;;5036415;28;20114;-75
2022/04/27 09:25:35;;;;;;;110.60;99.90;;;11.10;62.90;;;;;;5037399;28;20054;-76
2022/04/27 09:28:04;;;;;;;110.10;99.70;;;11.10;62.90;;;;;;5037354;28;20049;-76
2022/04/27 09:30:33;;;;;;;110.47;100.07;;;11.20;63.00;;;;;;5036372;28;20077;-77
2022/04/27 09:33:00;;;;;;;109.38;99.45;;;11.30;62.90;;;;;;5037782;28;20059;-81
2022/04/27 09:35:32;;;;;;;109.50;99.43;;;11.40;62.90;;;;;;5055055;28;20491;-79
2022/04/27 09:38:13;;;;;;;110.45;99.70;;;11.40;62.50;;;;;;5054700;28;20065;-76
2022/04/27 09:40:47;;;;;;;109.40;99.25;;;11.50;62.20;;;;;;5055285;28;20553;-76
2022/04/27 09:43:16;;;;;;;113.47;102.93;;;11.50;61.70;;;;;;5053306;28;20049;-79
2022/04/27 09:45:44;;;;;;;109.90;99.78;;;11.50;61.50;;;;;;5037053;28;20084;-77
2022/04/27 09:48:18;;;;;;;120.93;110.05;;;11.60;61.40;;;;;;5032769;28;20057;-75
2022/04/27 09:50:50;;;;;;;108.93;98.82;;;11.60;61.40;;;;;;5049423;28;20041;-76
2022/04/27 09:53:18;;;;;;;110.43;100.35;;;11.60;61.50;;;;;;5053094;28;20053;-79
2022/04/27 09:55:47;;;;;;;110.00;99.85;;;11.70;61.60;;;;;;5048516;28;20094;-84
2022/04/27 09:58:18;;;;;;;111.13;101.03;;;11.70;61.50;;;;;;5016385;28;20420;-88
2022/04/27 10:00:47;;;;;;;112.13;101.93;;;11.70;61.40;;;;;;5033367;28;20136;-86
2022/04/27 10:03:15;;;;;;;109.57;99.68;;;11.70;61.50;;;;;;5022193;28;20049;-84
2022/04/27 10:05:43;;;;;;;114.00;101.90;;;11.80;61.60;;;;;;5051761;28;20076;-81
2022/04/27 10:08:11;;;;;;;109.85;99.72;;;11.90;61.50;;;;;;5036994;28;20137;-81
2022/04/27 10:10:39;;;;;;;111.05;101.05;;;11.90;61.70;;;;;;5028821;28;20203;-82
2022/04/27 10:13:10;;;;;;;109.93;99.82;;;11.90;61.30;;;;;;5020868;28;20515;-82
2022/04/27 10:15:42;;;;;;;114.97;104.47;;;12.00;60.60;;;;;;5035187;28;20053;-80
2022/04/27 10:18:11;;;;;;;111.72;101.53;;;12.00;60.30;;;;;;5034683;28;20056;-81
2022/04/27 10:20:38;;;;;;;110.85;100.72;;;12.00;60.20;;;;;;5034864;28;20060;-81
2022/04/27 10:23:20;;;;;;;111.07;100.88;;;12.00;59.70;;;;;;5037233;28;20050;-88
2022/04/27 10:26:13;;;;;;;110.28;100.05;;;12.00;58.80;;;;;;5034727;28;20050;-84
2022/04/27 10:28:44;;;;;;;110.30;100.00;;;12.00;58.40;;;;;;5035829;28;20118;-83
2022/04/27 10:31:12;;;;;;;110.15;100.05;;;12.00;58.40;;;;;;5053262;28;20057;-82
2022/04/27 10:33:41;;;;;;;111.13;100.47;;;12.00;58.60;;;;;;5036136;28;20545;-79
2022/04/27 10:36:36;;;;;;;113.43;102.85;;;12.00;59.10;;;;;;5035959;28;20049;-79
2022/04/27 10:39:25;;;;;;;110.57;100.15;;;12.10;59.40;;;;;;5036165;28;20053;-80
2022/04/27 10:42:18;;;;;;;110.45;100.38;;;12.10;60.30;;;;;;5032003;28;20119;-79
2022/04/27 10:45:07;;;;;;;110.22;99.88;;;12.20;58.80;;;;;;5036266;28;20120;-79
2022/04/27 10:47:38;;;;;;;110.85;100.78;;;12.20;58.80;;;;;;5036706;28;20053;-79
2022/04/27 10:50:36;;;;;;;111.38;101.18;;;12.30;57.90;;;;;;5052963;28;20056;-79
2022/04/27 10:53:22;;;;;;;110.32;100.10;;;12.20;58.40;;;;;;5000336;28;20052;-79
2022/04/27 10:55:53;;;;;;;111.18;101.05;;;12.30;58.90;;;;;;5000059;28;20050;-79
2022/04/27 10:58:28;;;;;;;110.03;99.78;;;12.30;58.50;;;;;;5032737;28;20495;-79
2022/04/27 11:01:26;;;;;;;112.53;101.88;;;12.40;58.30;;;;;;5016824;28;20136;-79
2022/04/27 11:04:03;;;;;;;112.18;101.55;;;12.40;57.90;;;;;;5045146;28;20057;-78
2022/04/27 11:07:10;;;;;;;109.22;99.13;;;12.50;57.90;;;;;;5022914;28;20056;-78
2022/04/27 11:10:07;;;;;;;110.55;100.50;;;12.50;58.20;;;;;;5048353;28;20121;-78
2022/04/27 11:12:36;;;;;;;110.70;100.53;;;12.50;58.50;;;;;;5023553;28;20053;-78
2022/04/27 11:15:04;;;;;;;110.07;100.18;;;12.50;58.60;;;;;;5035949;28;20057;-78
2022/04/27 11:17:33;;;;;;;109.82;99.75;;;12.60;58.90;;;;;;5035886;28;20093;-78
2022/04/27 11:20:02;;;;;;;111.93;101.43;;;12.60;58.40;;;;;;5028173;28;20141;-78
2022/04/27 11:22:37;;;;;;;110.40;100.50;;;12.70;57.50;;;;;;5027731;28;20042;-78
2022/04/27 11:25:07;;;;;;;110.70;100.63;;;12.70;57.30;;;;;;5031240;28;20512;-78
2022/04/27 11:27:36;;;;;;;110.78;100.63;;;12.70;57.60;;;;;;5032811;28;20053;-78
2022/04/27 11:30:04;;;;;;;111.05;100.95;;;12.80;56.90;;;;;;5033091;28;20050;-78
2022/04/27 11:32:31;;;;;;;111.45;101.25;;;12.80;57.00;;;;;;5032950;28;20129;-77
2022/04/27 11:34:58;;;;;;;111.88;101.40;;;12.80;57.40;;;;;;5016107;28;20130;-77
2022/04/27 11:37:27;;;;;;;110.82;100.57;;;12.90;57.60;;;;;;5034403;28;20045;-78
2022/04/27 11:39:54;;;;;;;111.30;101.07;;;12.90;57.30;;;;;;5036276;28;20064;-79
2022/04/27 11:42:22;;;;;;;111.18;101.15;;;12.90;56.40;;;;;;5035809;28;20049;-79
2022/04/27 11:44:53;;;;;;;112.65;102.25;;;12.90;56.30;;;;;;5051791;28;20053;-79
2022/04/27 11:47:28;;;;;;;113.00;102.90;;;13.00;56.90;;;;;;5048229;28;20046;-82
2022/04/27 11:49:56;;;;;;;111.63;101.50;;;13.00;56.90;;;;;;5028771;28;20077;-82
2022/04/27 11:52:23;;;;;;;112.07;101.55;;;13.00;56.60;;;;;;5047294;28;20060;-84
2022/04/27 11:54:52;;;;;;;112.22;102.03;;;13.00;56.80;;;;;;5017139;28;20084;-83
2022/04/27 11:57:23;;;;;;;112.32;102.15;;;13.10;56.70;;;;;;5005845;28;20053;-83
2022/04/27 11:59:51;;;;;;;113.60;103.20;;;13.10;56.50;;;;;;5050858;28;20100;-84
2022/04/27 12:02:23;;;;;;;113.55;103.20;;;13.10;55.90;;;;;;5018827;28;20075;-83
2022/04/27 12:04:51;;;;;;;112.90;102.80;;;13.10;55.20;;;;;;5033559;28;20057;-80
2022/04/27 12:07:19;;;;;;;113.70;103.15;;;13.10;55.40;;;;;;5048226;28;20056;-80
2022/04/27 12:10:10;;;;;;;113.95;103.65;;;13.10;56.30;;;;;;5034829;28;20061;-80
2022/04/27 12:12:39;;;;;;;113.07;102.97;;;13.10;57.00;;;;;;5029977;28;20337;-80
2022/04/27 12:15:08;;;;;;;114.38;103.95;;;13.10;57.20;;;;;;5033253;28;20057;-82
2022/04/27 12:17:51;;;;;;;113.07;102.93;;;13.20;57.40;;;;;;5034340;28;20046;-82
2022/04/27 12:20:36;;;;;;;115.47;104.90;;;13.30;57.70;;;;;;5034918;28;20068;-82
2022/04/27 12:23:06;;;;;;;111.10;100.93;;;13.30;58.10;;;;;;5033735;28;20077;-82
2022/04/27 12:25:42;;;;;;;116.22;105.57;;;13.30;58.00;;;;;;5033497;28;20472;-81
2022/04/27 12:28:15;;;;;;;120.50;109.57;;;13.40;58.00;;;;;;5019262;28;20057;-81
2022/04/27 12:30:44;;;;;;;116.95;106.28;;;13.40;58.20;;;;;;5030017;28;20630;-82
2022/04/27 12:33:12;;;;;;;113.78;103.40;;;13.50;58.30;;;;;;5013512;28;20127;-82
2022/04/27 12:38:28;;;;;;;114.63;104.32;;;13.50;58.00;;;;;;5031792;28;20092;-82
2022/04/27 12:40:57;;;;;;;110.70;100.65;;;13.60;58.10;;;;;;5017073;28;20042;-81
2022/04/27 12:43:24;;;;;;;112.35;102.25;;;13.60;57.70;;;;;;5016179;28;20046;-82
2022/04/27 12:46:18;;;;;;;112.95;102.90;;;13.60;57.30;;;;;;5015915;28;20057;-81
2022/04/27 12:48:45;;;;;;;112.55;102.25;;;13.70;58.10;;;;;;4981376;28;20042;-82
2022/04/27 12:51:12;;;;;;;112.28;101.90;;;13.70;56.70;;;;;;5035663;28;20057;-82
2022/04/27 12:53:39;;;;;;;111.90;101.80;;;13.80;56.10;;;;;;5019597;28;20049;-81
2022/04/27 12:56:10;;;;;;;114.47;104.07;;;13.80;56.30;;;;;;5019671;28;20057;-82
2022/04/27 12:58:39;;;;;;;113.47;103.00;;;13.90;56.60;;;;;;5046750;28;20073;-81
2022/04/27 13:01:06;;;;;;;114.93;104.43;;;13.90;56.30;;;;;;5038423;28;20582;-81
2022/04/27 13:03:34;;;;;;;112.82;102.82;;;13.90;55.80;;;;;;5036291;28;20534;-82